createdAt,value
2023-03-28T00:00:45.108Z,21.4
2023-03-28T00:06:36.925Z,21.4
2023-03-28T00:11:57.678Z,21.4
2023-03-28T00:17:34.335Z,21.4
2023-03-28T00:23:25.293Z,21.3
2023-03-28T00:28:44.891Z,21.3
2023-03-28T00:34:21.311Z,21.3
2023-03-28T00:40:13.200Z,21.3
2023-03-28T00:45:59.141Z,21.3
2023-03-28T00:51:58.205Z,21.3
2023-03-28T00:57:34.274Z,21.3
2023-03-28T01:03:10.351Z,21.3
2023-03-28T01:08:47.482Z,21.2
2023-03-28T01:14:23.810Z,21.2
2023-03-28T01:19:46.603Z,21.2
2023-03-28T01:25:19.545Z,21.2
2023-03-28T02:09:46.522Z,21.1
2023-03-28T02:15:38.049Z,21.1
2023-03-28T02:21:29.275Z,21.1
2023-03-28T02:27:05.712Z,21
2023-03-28T02:32:57.882Z,21.1
2023-03-28T02:38:49.181Z,21
2023-03-28T02:44:43.612Z,21
2023-03-28T02:50:44.295Z,21
2023-03-28T02:56:05.168Z,20.9
2023-03-28T03:01:56.777Z,21
2023-03-28T03:07:34.411Z,20.9
2023-03-28T03:13:10.587Z,20.9
2023-03-28T03:18:47.267Z,20.9
2023-03-28T03:24:23.534Z,20.9
2023-03-28T03:29:55.193Z,20.9
2023-03-28T03:35:34.478Z,20.9
2023-03-28T03:41:11.038Z,20.9
2023-03-28T03:46:48.017Z,20.9
2023-03-28T03:52:14.568Z,20.9
2023-03-28T03:57:51.033Z,20.9
2023-03-28T04:03:24.358Z,20.9
2023-03-28T04:09:00.966Z,20.9
2023-03-28T04:14:37.323Z,20.9
2023-03-28T04:20:25.201Z,20.9
2023-03-28T04:26:26.009Z,20.9
2023-03-28T04:32:03.004Z,20.9
2023-03-28T04:37:39.860Z,20.8
2023-03-28T04:42:37.389Z,20.8
2023-03-28T04:47:59.186Z,20.8
2023-03-28T04:53:51.048Z,20.8
2023-03-28T04:59:42.803Z,20.8
2023-03-28T05:05:20.512Z,20.8
2023-03-28T05:11:12.471Z,20.8
2023-03-28T05:17:07.935Z,20.8
2023-03-28T05:23:00.301Z,20.8
2023-03-28T05:28:54.069Z,20.8
2023-03-28T05:34:45.830Z,20.8
2023-03-28T05:40:37.876Z,20.8
2023-03-28T05:46:28.765Z,20.8
2023-03-28T05:52:20.025Z,20.7
2023-03-28T05:58:00.388Z,20.7
2023-03-28T06:03:53.435Z,20.7
2023-03-28T06:09:58.569Z,20.7
2023-03-28T06:15:49.877Z,20.7
2023-03-28T06:22:07.272Z,20.6
2023-03-28T06:27:43.309Z,20.7
2023-03-28T06:33:36.347Z,20.6
2023-03-28T06:39:28.552Z,20.6
2023-03-28T06:45:20.338Z,20.6
2023-03-28T06:50:57.036Z,20.6
2023-03-28T06:56:33.051Z,20.6
2023-03-28T07:02:24.922Z,20.6
2023-03-28T07:08:19.930Z,20.6
2023-03-28T07:13:55.986Z,20.6
2023-03-28T07:19:49.442Z,20.6
2023-03-28T07:25:49.599Z,20.6
2023-03-28T07:32:00.306Z,20.6
2023-03-28T07:38:23.406Z,20.6
2023-03-28T07:43:43.822Z,20.6
2023-03-28T07:49:20.153Z,20.6
2023-03-28T07:55:11.174Z,20.6
2023-03-28T08:01:14.150Z,20.6
2023-03-28T08:07:21.222Z,20.6
2023-03-28T08:13:12.305Z,20.6
2023-03-28T08:19:16.346Z,20.6
2023-03-28T08:25:18.200Z,20.6
2023-03-28T08:30:53.959Z,20.5
2023-03-28T08:36:46.529Z,20.5
2023-03-28T08:42:40.995Z,20.5
2023-03-28T08:48:17.242Z,20.4
2023-03-28T08:54:11.415Z,20.4
2023-03-28T09:00:04.712Z,20.4
2023-03-28T09:06:14.826Z,20.4
2023-03-28T09:12:07.493Z,20.4
2023-03-28T09:17:43.318Z,20.4
2023-03-28T09:23:57.656Z,20.3
2023-03-28T09:29:50.472Z,20.3
2023-03-28T09:35:28.240Z,20.3
2023-03-28T09:41:31.804Z,20.3
2023-03-28T09:47:34.136Z,20.3
2023-03-28T09:53:36.571Z,20.3
2023-03-28T09:59:22.058Z,20.3
2023-03-28T10:05:14.899Z,20.2
2023-03-28T10:11:06.258Z,20.2
2023-03-28T10:16:57.267Z,20.2
2023-03-28T10:22:48.634Z,20.4
2023-03-28T10:28:39.355Z,20.6
2023-03-28T10:34:15.746Z,19.4
2023-03-28T10:40:09.115Z,44.6
2023-03-28T10:46:00.996Z,35.2
2023-03-28T10:51:52.370Z,31.9
2023-03-28T10:57:44.707Z,44.6
2023-03-28T11:03:36.977Z,37.4
2023-03-28T11:09:47.502Z,33
2023-03-28T11:15:55.170Z,32.9
2023-03-28T11:21:31.598Z,46.7
2023-03-28T11:27:48.440Z,38.8
2023-03-28T11:33:55.672Z,38.9
2023-03-28T11:39:31.508Z,40.5
2023-03-28T11:45:34.092Z,43.1
2023-03-28T11:51:30.286Z,43.8
2023-03-28T11:57:22.880Z,45.1
2023-03-28T12:03:23.814Z,46.3
2023-03-28T12:09:33.001Z,44.1
2023-03-28T12:15:35.194Z,43.3
2023-03-28T12:21:29.206Z,46.1
2023-03-28T12:27:21.091Z,47.4
2023-03-28T12:32:58.660Z,43.4
2023-03-28T12:38:49.755Z,38.9
2023-03-28T12:44:26.809Z,36.1
2023-03-28T12:50:19.101Z,33.6
2023-03-28T12:56:10.806Z,47.3
2023-03-28T13:02:04.696Z,45.6
2023-03-28T13:07:56.993Z,40
2023-03-28T13:13:48.935Z,36.7
2023-03-28T13:19:41.742Z,34.2
2023-03-28T13:25:19.168Z,32.3
2023-03-28T13:30:55.336Z,30.8
2023-03-28T13:36:47.301Z,29.5
2023-03-28T13:42:26.924Z,28.4
2023-03-28T13:48:12.345Z,27.6
2023-03-28T13:54:02.902Z,26.9
2023-03-28T13:59:54.877Z,26.2
2023-03-28T14:05:48.274Z,25.6
2023-03-28T14:11:39.860Z,25.1
2023-03-28T14:17:33.921Z,24.8
2023-03-28T14:23:34.441Z,24.4
2023-03-28T14:29:14.124Z,24.1
2023-03-28T14:35:15.860Z,23.8
2023-03-28T14:41:07.038Z,23.5
2023-03-28T14:46:59.033Z,23.3
2023-03-28T14:52:52.870Z,23.1
2023-03-28T14:58:44.144Z,22.9
2023-03-28T15:04:37.252Z,22.8
2023-03-28T15:10:15.262Z,22.6
2023-03-28T15:16:08.593Z,22.5
2023-03-28T15:22:00.670Z,22.4
2023-03-28T15:27:52.505Z,22.3
2023-03-28T15:33:31.139Z,22.1
2023-03-28T15:39:24.843Z,22.1
2023-03-28T15:45:16.069Z,22
2023-03-28T15:51:09.280Z,21.9
2023-03-28T15:57:18.089Z,21.8
2023-03-28T16:03:09.622Z,21.8
2023-03-28T16:09:04.900Z,21.8
2023-03-28T16:14:56.301Z,21.7
2023-03-28T16:20:33.058Z,21.6
2023-03-28T16:26:09.063Z,21.6
2023-03-28T16:31:46.211Z,21.5
2023-03-28T16:37:38.512Z,21.5
2023-03-28T16:43:29.919Z,21.4
2023-03-28T16:49:21.646Z,21.4
2023-03-28T16:55:12.293Z,21.4
2023-03-28T17:00:33.690Z,21.4
2023-03-28T17:06:29.322Z,21.3
2023-03-28T17:12:21.058Z,21.6
2023-03-28T17:18:12.999Z,21.9
2023-03-28T17:23:33.902Z,22.2
2023-03-28T17:29:41.751Z,22.5
2023-03-28T17:35:35.469Z,22.7
2023-03-28T17:41:27.838Z,22.9
2023-03-28T17:47:20.526Z,23.1
2023-03-28T17:52:59.883Z,23.3
2023-03-28T17:58:52.485Z,23.4
2023-03-28T18:04:30.276Z,23.6
2023-03-28T18:10:24.731Z,23.7
2023-03-28T18:16:17.203Z,23.8
2023-03-28T18:21:38.104Z,23.8
2023-03-28T18:27:31.839Z,23.8
2023-03-28T18:33:12.776Z,23.8
2023-03-28T18:38:52.241Z,23.8
2023-03-28T18:44:29.182Z,23.8
2023-03-28T18:50:06.381Z,23.7
2023-03-28T18:55:43.562Z,23.6
2023-03-28T19:01:21.214Z,23.6
2023-03-28T19:07:00.281Z,23.5
2023-03-28T19:12:22.458Z,23.4
2023-03-28T19:18:01.562Z,23.4
2023-03-28T19:23:39.790Z,23.4
2023-03-28T19:29:18.544Z,23.4
2023-03-28T19:35:11.777Z,23.4
2023-03-28T19:40:49.638Z,23.4
2023-03-28T19:46:32.379Z,23.4
2023-03-28T19:52:25.875Z,23.4
2023-03-28T19:58:19.570Z,23.4
2023-03-28T20:03:56.216Z,23.4
2023-03-28T20:09:34.964Z,23.4
2023-03-28T20:15:13.548Z,23.4
2023-03-28T20:20:49.892Z,23.4
2023-03-28T20:26:26.558Z,23.4
2023-03-28T20:32:18.511Z,23.4
2023-03-28T20:38:10.386Z,23.4
2023-03-28T20:43:48.233Z,23.4
2023-03-28T20:49:40.521Z,23.4
2023-03-28T20:55:35.732Z,23.3
2023-03-28T21:01:28.154Z,23.1
2023-03-28T21:07:19.847Z,22.9
2023-03-28T21:13:11.144Z,22.9
2023-03-28T21:18:47.389Z,22.8
2023-03-28T21:24:38.664Z,22.8
2023-03-28T21:29:59.145Z,22.8
2023-03-28T21:35:21.648Z,22.7
2023-03-28T21:40:57.989Z,22.7
2023-03-28T21:46:33.249Z,22.7
2023-03-28T21:51:39.309Z,22.6
2023-03-28T21:57:30.930Z,22.6
2023-03-28T22:03:09.516Z,22.6
2023-03-28T22:08:39.180Z,22.6
2023-03-28T22:13:45.053Z,22.5
2023-03-28T22:19:06.169Z,22.4
2023-03-28T22:24:41.426Z,22.4
2023-03-28T22:29:46.711Z,22.4
2023-03-28T22:35:22.698Z,22.4
2023-03-28T22:40:57.927Z,22.3
2023-03-28T22:46:19.188Z,22.3
2023-03-28T22:51:56.328Z,22.3
2023-03-28T22:57:32.855Z,22.3
2023-03-28T23:03:09.305Z,22.3
2023-03-28T23:09:01.291Z,22.2
2023-03-28T23:14:37.084Z,22.2
2023-03-28T23:20:29.772Z,22.1
2023-03-28T23:26:06.221Z,22.1
2023-03-28T23:31:59.713Z,22.1
2023-03-28T23:37:51.635Z,22.1
2023-03-28T23:43:28.052Z,22.1
2023-03-28T23:49:03.922Z,22.1
2023-03-28T23:54:24.889Z,22
